»·PEaware :: N72LB KVCV-KTOA

N72LB :: KVCV-KTOA

FLIGHT INFORMATION

Flight Status: Arrived
Operator: Privately registered:
United States
More flights under this callsign
Pilot: John L. (26044)
Aircraft: BEECH AIRCRAFT BONANZA
(BE35)
More flights by this aircraft type
Origin: KVCV Socal Logistics
United States
Destination: KTOA Zamperini
United States
More flights between these airports :: More routes between these airports
Route: +APLES V442 PDZ PDZ270 DOWDD V394 SLI
File this flight plan on PilotEdge
Remarks:
Altitude:
(Current/Filed)
10,000ft
Speed:
(Current/Filed)
150kts
Departed: 20-Nov-19 02:16 PM
Arrived: 20-Nov-19 03:39 PM
Distance/Time
Traveled:
67nm/1:23
Distance/Time
To Go:
Arrived

Flight Plot

Page will automatically refresh every two minutes.

Flight plan parsing failed; only flown route is shown


Map Options




Map Legend


Flown Route
Filed Route
Departure Airport
Arrival Airport
Navaid (VOR, NDB)
Fix

Horizontal Profiles

Position Reports

Time Latitude Longitude Heading Altitude Ground
Speed
20-Nov-19 13:39 34.588333 -117.376341 313 2868ft 0kts
20-Nov-19 13:40 34.588333 -117.376341 313 2868ft 0kts
20-Nov-19 13:41 34.588333 -117.376341 313 2868ft 0kts
20-Nov-19 13:42 34.588333 -117.376341 313 2868ft 0kts
20-Nov-19 13:43 34.588333 -117.376341 313 2868ft 0kts
20-Nov-19 13:44 34.588333 -117.376341 313 2868ft 0kts
20-Nov-19 13:45 34.588333 -117.376341 313 2868ft 0kts
20-Nov-19 13:46 34.588333 -117.376341 313 2868ft 0kts
20-Nov-19 13:47 34.588333 -117.376341 313 2868ft 0kts
20-Nov-19 13:48 34.588333 -117.376341 313 2868ft 0kts
20-Nov-19 13:49 34.588333 -117.376341 313 2868ft 0kts
20-Nov-19 13:50 34.588333 -117.376341 313 2868ft 0kts
20-Nov-19 13:51 34.588333 -117.376341 313 2868ft 0kts
20-Nov-19 13:52 34.588333 -117.376341 313 2868ft 0kts
20-Nov-19 13:53 34.588333 -117.376341 313 2868ft 0kts
20-Nov-19 13:54 34.588333 -117.376341 313 2868ft 0kts
20-Nov-19 13:55 34.588333 -117.376341 313 2868ft 0kts
20-Nov-19 13:56 34.588333 -117.376341 313 2868ft 0kts
20-Nov-19 13:57 34.588333 -117.376341 313 2868ft 0kts
20-Nov-19 13:58 34.588333 -117.376341 313 2868ft 0kts
20-Nov-19 13:59 34.588333 -117.376341 313 2868ft 0kts
20-Nov-19 14:00 34.588333 -117.376341 313 2868ft 0kts
20-Nov-19 14:01 34.588333 -117.376341 313 2868ft 0kts
20-Nov-19 14:02 34.588333 -117.376341 313 2868ft 0kts
20-Nov-19 14:03 34.588333 -117.376341 313 2868ft 0kts
20-Nov-19 14:04 34.588333 -117.376341 313 2868ft 0kts
20-Nov-19 14:05 34.588333 -117.376341 313 2868ft 0kts
20-Nov-19 14:06 34.588333 -117.376341 313 2868ft 0kts
20-Nov-19 14:07 34.588333 -117.376341 313 2868ft 0kts
20-Nov-19 14:08 34.588333 -117.376341 313 2868ft 0kts
20-Nov-19 14:09 34.588451 -117.376456 339 2868ft 5kts
20-Nov-19 14:10 34.592352 -117.373426 42 2861ft 39kts
20-Nov-19 14:11 34.593379 -117.368297 70 2855ft 19kts
20-Nov-19 14:12 34.597116 -117.367069 11 2848ft 20kts
20-Nov-19 14:13 34.599076 -117.366612 5 2845ft 0kts
20-Nov-19 14:14 34.599946 -117.366447 0 2844ft 11kts
20-Nov-19 14:15 34.594440 -117.374496 222 2922ft 84kts
20-Nov-19 14:16 34.595546 -117.399986 274 3447ft 117kts
20-Nov-19 14:17 34.601889 -117.428719 274 4123ft 115kts
20-Nov-19 14:18 34.607308 -117.455182 275 4777ft 108kts
20-Nov-19 14:19 34.611443 -117.480128 272 5351ft 106kts
20-Nov-19 14:21 34.615609 -117.504992 274 5894ft 106kts
20-Nov-19 14:22 34.611094 -117.524555 182 6400ft 85kts
20-Nov-19 14:23 34.599964 -117.508933 123 6881ft 94kts
20-Nov-19 14:24 34.592740 -117.488178 122 7328ft 94kts
20-Nov-19 14:25 34.585715 -117.467949 122 7709ft 99kts
20-Nov-19 14:26 34.578335 -117.447474 122 8093ft 102kts
20-Nov-19 14:27 34.570973 -117.427678 123 8464ft 103kts
20-Nov-19 14:28 34.561410 -117.412112 139 8807ft 98kts
20-Nov-19 14:29 34.551840 -117.398760 139 9104ft 99kts
20-Nov-19 14:30 34.542791 -117.386245 139 9379ft 99kts
20-Nov-19 14:31 34.534616 -117.374671 139 9619ft 99kts
20-Nov-19 14:32 34.526763 -117.363755 139 9836ft 100kts
20-Nov-19 14:33 34.518844 -117.352595 139 10019ft 104kts
20-Nov-19 14:34 34.509522 -117.339925 139 10025ft 124kts
20-Nov-19 14:34 34.500613 -117.328060 139 10023ft 137kts
20-Nov-19 14:36 34.486395 -117.313278 161 10023ft 142kts
20-Nov-19 14:37 34.470497 -117.305294 161 10017ft 149kts
20-Nov-19 14:37 34.456016 -117.298211 162 10017ft 153kts
20-Nov-19 14:39 34.436942 -117.288930 162 10017ft 157kts
20-Nov-19 14:40 34.418042 -117.279756 162 9991ft 161kts
20-Nov-19 14:40 34.401762 -117.279996 209 9992ft 156kts
20-Nov-19 14:42 34.379674 -117.293331 204 9981ft 157kts
20-Nov-19 14:43 34.360372 -117.303805 203 9986ft 158kts
20-Nov-19 14:43 34.343280 -117.312807 203 9989ft 158kts
20-Nov-19 14:44 34.318205 -117.325812 203 9994ft 155kts
20-Nov-19 14:45 34.298631 -117.335895 202 9999ft 154kts
20-Nov-19 14:46 34.280209 -117.345366 203 10004ft 154kts
20-Nov-19 14:47 34.262935 -117.354241 202 10007ft 155kts
20-Nov-19 14:48 34.246948 -117.362444 202 10011ft 156kts
20-Nov-19 14:49 34.230380 -117.370937 202 10014ft 156kts
20-Nov-19 14:50 34.210932 -117.380897 202 9799ft 169kts
20-Nov-19 14:51 34.188048 -117.392644 202 9255ft 189kts
20-Nov-19 14:52 34.163602 -117.405165 201 8736ft 197kts
20-Nov-19 14:53 34.132210 -117.421232 201 8102ft 201kts
20-Nov-19 14:54 34.099326 -117.438046 200 7565ft 199kts
20-Nov-19 14:55 34.071427 -117.452157 200 7041ft 190kts
20-Nov-19 14:56 34.044482 -117.465893 199 6374ft 189kts
20-Nov-19 14:57 34.010070 -117.483397 200 6006ft 169kts
20-Nov-19 14:58 33.987024 -117.495306 200 6013ft 172kts
20-Nov-19 14:59 33.954157 -117.511966 200 6012ft 173kts
20-Nov-19 15:00 33.927766 -117.528228 229 5983ft 177kts
20-Nov-19 15:01 33.925788 -117.554643 277 5583ft 202kts
20-Nov-19 15:02 33.930427 -117.582012 282 5235ft 210kts
20-Nov-19 15:03 33.936225 -117.609701 283 4898ft 214kts
20-Nov-19 15:04 33.942606 -117.638850 283 4580ft 210kts
20-Nov-19 15:05 33.948622 -117.665890 283 4242ft 208kts
20-Nov-19 15:06 33.955880 -117.698237 283 4010ft 205kts
20-Nov-19 15:07 33.963081 -117.730648 283 4002ft 197kts
20-Nov-19 15:08 33.970153 -117.762574 283 3995ft 193kts
20-Nov-19 15:09 33.976813 -117.792739 283 3996ft 191kts
20-Nov-19 15:10 33.980683 -117.821106 255 3983ft 188kts
20-Nov-19 15:11 33.964403 -117.841238 207 3997ft 179kts
20-Nov-19 15:12 33.940104 -117.854197 200 3986ft 176kts
20-Nov-19 15:13 33.911527 -117.858248 184 3980ft 174kts
20-Nov-19 15:14 33.885799 -117.860616 183 3983ft 173kts
20-Nov-19 15:15 33.862389 -117.862365 182 3985ft 172kts
20-Nov-19 15:16 33.836278 -117.864427 182 3986ft 172kts
20-Nov-19 15:17 33.807740 -117.866822 182 3987ft 172kts
20-Nov-19 15:18 33.779722 -117.870028 182 3991ft 174kts
20-Nov-19 15:19 33.754292 -117.873202 183 3990ft 176kts
20-Nov-19 15:20 33.729739 -117.876383 183 3993ft 176kts
20-Nov-19 15:21 33.705123 -117.879559 182 3990ft 178kts
20-Nov-19 15:22 33.681626 -117.882643 182 3991ft 178kts
20-Nov-19 15:23 33.661223 -117.897921 252 3987ft 188kts
20-Nov-19 15:24 33.663531 -117.930766 274 3945ft 188kts
20-Nov-19 15:25 33.665458 -117.965444 275 3392ft 173kts
20-Nov-19 15:26 33.666876 -117.999542 275 2793ft 162kts
20-Nov-19 15:27 33.668567 -118.037684 276 2026ft 166kts
20-Nov-19 15:28 33.671790 -118.077519 290 1979ft 173kts
20-Nov-19 15:29 33.687569 -118.113528 296 1992ft 173kts
20-Nov-19 15:30 33.702196 -118.150467 296 1995ft 175kts
20-Nov-19 15:31 33.716881 -118.187816 296 1996ft 175kts
20-Nov-19 15:32 33.730333 -118.222386 293 1998ft 173kts
20-Nov-19 15:33 33.746777 -118.253382 309 1990ft 156kts
20-Nov-19 15:34 33.763862 -118.279224 309 1411ft 140kts
20-Nov-19 15:35 33.778253 -118.300707 310 907ft 94kts
20-Nov-19 15:36 33.790152 -118.318677 310 504ft 86kts
20-Nov-19 15:37 33.800406 -118.334021 310 124ft 72kts
20-Nov-19 15:38 33.805600 -118.343027 291 94ft 25kts
20-Nov-19 15:39 33.806057 -118.344613 275 92ft 14kts
20-Nov-19 15:40 33.803756 -118.345129 197 97ft 10kts
20-Nov-19 15:41 33.803662 -118.345165 197 97ft 1kts
20-Nov-19 15:42 33.803662 -118.345165 197 97ft 1kts
20-Nov-19 15:43 33.803662 -118.345165 197 97ft 1kts
20-Nov-19 15:44 33.803662 -118.345165 197 97ft 1kts
20-Nov-19 15:45 33.803662 -118.345165 197 97ft 1kts
20-Nov-19 15:46 33.803662 -118.345165 197 97ft 1kts
20-Nov-19 15:47 33.803662 -118.345165 197 97ft 1kts
20-Nov-19 15:48 33.803662 -118.345165 197 97ft 1kts
20-Nov-19 15:49 33.803662 -118.345165 197 97ft 1kts
20-Nov-19 15:50 33.803662 -118.345165 197 97ft 1kts
20-Nov-19 15:51 33.803662 -118.345165 197 97ft 1kts
20-Nov-19 15:52 33.803662 -118.345165 197 97ft 1kts

Navigation Log

Ident Type
Flight plan parsing failed, navigation log unavailable